Nules, Spain
Current Conditions -  °F | °C
As of 5:00 AM on Monday 22 Dec 2014 (Local Time) from LEBT Reporting Station
Clear Clear  
Wind Chill: 39°   Ceiling: Unl
Heat Index: 39°   Visibility: 4mi
Dew Point: 39°   Wind: 2mph
Humidity: 100%   Direction: 320°NW
Pressure: 30.48"   Gusts: NA
Location:  39.85°N, 0.16°W
Report Text: LEBT 220400Z AUTO 32002KT 7000 // NSC 04/04 Q1032
Loading
Personal Weather Stations






























Interactive Weather Map New forecast layout! Learn more

10-Day Weather Forecast

Advertisements
Track Severe Weather on mobile